Quentin, Pennsylvania
Current Conditions -  °F | °C
As of 12:58 PM on Thursday 30 Oct 2014 (Local Time) from KMUI Reporting Station
Broken Clouds Broken Clouds  
Wind Chill: 54°   Ceiling: 4500
Heat Index: 54°   Visibility: 10mi
Dew Point: 36°   Wind: 10mph
Humidity: 52%   Direction: 310°NW
Pressure: 30.03"   Gusts: NA
Location:  40.28°N, 76.44°W
Report Text: KMUI 301658Z 31009KT 10SM BKN045 12/02 A3003 RMK AO2A SLP174 T01200023 $
Loading
Personal Weather Stations






























Interactive Weather Map
Tropical Storm Tracking
New forecast layout! Learn more

10-Day Weather Forecast

Advertisements
Track Severe Weather on mobile